Time;durP1;ratioP1;P1;durP2;ratioP2;P2;SDS_P1;SDS_P2;PMS_P1;PMS_P2;Temp;Humidity;BMP_temperature;BMP_pressure;BME280_temperature;BME280_humidity;BME280_pressure;Samples;Min_cycle;Max_cycle;Signal;HPM_P1;HPM_P2
2023/01/29 00:01:17;;;;;;;2.78;2.58;;;15.70;40.60;;;;;;5014646;28;20539;-84
2023/01/29 00:03:44;;;;;;;5.75;3.00;;;15.70;40.80;;;;;;5014565;28;20659;-82
2023/01/29 00:06:11;;;;;;;3.00;2.80;;;15.60;40.90;;;;;;5016152;28;20209;-83
2023/01/29 00:08:38;;;;;;;3.35;3.00;;;15.70;41.00;;;;;;5014207;28;20216;-83
2023/01/29 00:11:07;;;;;;;2.80;2.60;;;15.60;41.10;;;;;;5014227;28;20299;-83
2023/01/29 00:13:35;;;;;;;2.90;2.70;;;15.60;41.10;;;;;;5014312;28;20660;-83
2023/01/29 00:16:02;;;;;;;4.68;2.90;;;15.60;41.20;;;;;;5014677;28;20227;-83
2023/01/29 00:18:29;;;;;;;2.95;2.67;;;15.60;41.20;;;;;;5014279;28;20200;-83
2023/01/29 00:20:56;;;;;;;2.60;2.40;;;15.60;41.20;;;;;;4998984;28;20209;-83
2023/01/29 00:23:23;;;;;;;2.95;2.75;;;15.60;41.20;;;;;;4998676;28;20197;-83
2023/01/29 00:25:50;;;;;;;2.80;2.60;;;15.50;41.20;;;;;;5014952;28;20212;-83
2023/01/29 00:28:18;;;;;;;2.97;2.72;;;15.50;41.30;;;;;;5014486;28;20215;-83
2023/01/29 00:30:45;;;;;;;2.88;2.67;;;15.50;41.30;;;;;;4998055;28;20196;-83
2023/01/29 00:33:12;;;;;;;2.95;2.75;;;15.50;41.20;;;;;;5013798;28;20196;-83
2023/01/29 00:35:40;;;;;;;2.55;2.35;;;15.50;41.40;;;;;;5013944;28;20216;-83
2023/01/29 00:38:07;;;;;;;4.90;3.05;;;15.50;41.40;;;;;;4997974;28;20189;-83
2023/01/29 00:44:56;;;;;;;3.38;3.05;;;15.50;41.50;;;;;;5013862;28;20702;-83
2023/01/29 00:46:09;;;;;;;3.10;2.80;;;15.40;41.40;;;;;;5014033;28;20252;-82
2023/01/29 00:48:36;;;;;;;2.90;2.60;;;15.40;41.50;;;;;;5014043;28;20244;-83
2023/01/29 00:51:04;;;;;;;2.90;2.70;;;15.40;41.50;;;;;;5014128;28;20559;-83
2023/01/29 00:53:31;;;;;;;3.03;2.80;;;15.40;41.60;;;;;;5013927;28;20200;-83
2023/01/29 00:55:58;;;;;;;3.20;2.90;;;15.40;41.60;;;;;;5014038;28;20221;-83
2023/01/29 00:58:32;;;;;;;3.03;2.83;;;15.30;41.60;;;;;;5013629;28;20189;-83
2023/01/29 01:01:01;;;;;;;3.08;2.78;;;15.30;41.70;;;;;;5014103;28;20200;-83
2023/01/29 01:03:28;;;;;;;2.95;2.67;;;15.30;41.70;;;;;;5013931;28;20200;-82
2023/01/29 01:06:05;;;;;;;2.70;2.50;;;15.30;41.60;;;;;;5014686;28;20208;-82
2023/01/29 01:11:17;;;;;;;3.00;2.80;;;15.30;41.80;;;;;;5013610;28;20268;-83
2023/01/29 01:13:45;;;;;;;2.90;2.60;;;15.30;41.70;;;;;;5013558;28;20197;-83
2023/01/29 01:16:13;;;;;;;2.97;2.60;;;15.30;41.60;;;;;;5013607;28;20221;-82
2023/01/29 01:18:40;;;;;;;2.83;2.63;;;15.30;41.80;;;;;;5014040;28;20288;-83
2023/01/29 01:21:07;;;;;;;2.88;2.63;;;15.30;41.70;;;;;;5013503;28;20203;-83
2023/01/29 01:23:34;;;;;;;2.70;2.50;;;15.30;41.80;;;;;;5013412;28;20224;-82
2023/01/29 01:26:02;;;;;;;2.72;2.53;;;15.20;41.70;;;;;;5013520;28;20303;-83
2023/01/29 01:28:29;;;;;;;2.83;2.63;;;15.20;41.80;;;;;;5013495;28;20225;-83
2023/01/29 01:30:57;;;;;;;3.00;2.70;;;15.20;41.80;;;;;;5013133;28;20209;-82
2023/01/29 01:33:24;;;;;;;3.00;2.70;;;15.20;41.90;;;;;;5013858;28;20205;-83
2023/01/29 01:35:52;;;;;;;2.90;2.70;;;15.20;41.70;;;;;;5013545;28;20220;-82
2023/01/29 01:38:19;;;;;;;2.90;2.70;;;15.20;41.90;;;;;;5014146;28;20192;-82
2023/01/29 01:40:46;;;;;;;2.85;2.63;;;15.20;42.30;;;;;;5014401;28;20188;-83
2023/01/29 01:43:13;;;;;;;2.70;2.50;;;15.20;41.80;;;;;;5013391;28;20196;-83
2023/01/29 01:45:42;;;;;;;2.63;2.42;;;15.20;41.90;;;;;;5015436;28;20629;-83
2023/01/29 01:48:12;;;;;;;2.80;2.60;;;15.20;41.90;;;;;;5016761;28;20212;-83
2023/01/29 01:50:41;;;;;;;2.90;2.70;;;15.20;42.00;;;;;;5016949;28;20305;-83
2023/01/29 01:53:11;;;;;;;2.70;2.50;;;15.10;41.80;;;;;;5016757;28;20705;-83
2023/01/29 01:55:39;;;;;;;2.80;2.60;;;15.10;41.90;;;;;;5017613;28;20691;-83
2023/01/29 01:58:08;;;;;;;3.20;2.90;;;15.10;41.90;;;;;;5016532;28;20217;-83
2023/01/29 02:00:35;;;;;;;2.80;2.60;;;15.10;41.90;;;;;;5016445;28;20196;-83
2023/01/29 02:11:22;;;;;;;2.90;2.60;;;15.10;41.90;;;;;;5017931;28;20195;-83
2023/01/29 02:13:52;;;;;;;2.90;2.70;;;15.00;41.80;;;;;;5017523;28;20201;-83
2023/01/29 02:16:25;;;;;;;2.90;2.70;;;15.00;41.80;;;;;;5016081;28;20595;-83
2023/01/29 02:18:52;;;;;;;3.35;2.45;;;15.00;41.80;;;;;;5017025;28;20205;-83
2023/01/29 02:21:36;;;;;;;3.13;2.78;;;15.00;41.90;;;;;;5015793;28;20675;-83
2023/01/29 02:24:23;;;;;;;2.78;2.58;;;15.00;41.80;;;;;;5015917;28;20204;-83
2023/01/29 02:26:55;;;;;;;2.78;2.58;;;15.00;41.80;;;;;;5015593;28;20217;-83
2023/01/29 02:29:27;;;;;;;2.60;2.40;;;14.90;41.80;;;;;;5015400;28;20679;-83
2023/01/29 02:32:01;;;;;;;2.95;2.75;;;15.00;41.90;;;;;;5016430;28;20203;-83
2023/01/29 02:37:21;;;;;;;3.42;2.53;;;14.90;41.80;;;;;;5015277;28;20351;-83
2023/01/29 02:39:51;;;;;;;3.00;2.80;;;14.90;42.00;;;;;;5015410;28;20220;-83
2023/01/29 02:42:21;;;;;;;2.80;2.60;;;14.90;42.20;;;;;;5015972;28;20196;-83
2023/01/29 02:44:52;;;;;;;2.70;2.50;;;14.90;42.20;;;;;;5015610;28;20212;-83
2023/01/29 02:47:25;;;;;;;3.28;2.72;;;14.90;42.10;;;;;;5015522;28;20709;-83
2023/01/29 02:49:55;;;;;;;2.90;2.70;;;14.80;42.00;;;;;;5015709;28;20766;-83
2023/01/29 02:52:25;;;;;;;2.83;2.63;;;14.90;42.10;;;;;;5015480;28;20204;-83
2023/01/29 02:54:53;;;;;;;2.70;2.50;;;14.80;42.00;;;;;;5015873;28;20200;-83
2023/01/29 02:57:21;;;;;;;2.33;2.20;;;14.80;42.30;;;;;;4998736;28;20205;-83
2023/01/29 02:59:52;;;;;;;2.70;2.50;;;14.80;42.10;;;;;;5015607;28;20197;-83
2023/01/29 03:02:22;;;;;;;2.70;2.50;;;14.80;42.30;;;;;;5017040;28;20211;-83
2023/01/29 03:04:52;;;;;;;2.75;2.55;;;14.80;42.10;;;;;;5015935;28;20197;-83
2023/01/29 03:10:03;;;;;;;2.65;2.45;;;14.80;42.20;;;;;;5015037;28;20189;-83
2023/01/29 03:12:33;;;;;;;2.90;2.70;;;14.80;42.20;;;;;;5016276;28;20251;-82
2023/01/29 03:15:11;;;;;;;2.67;2.47;;;14.80;42.20;;;;;;5015964;28;20197;-83
2023/01/29 03:17:41;;;;;;;2.53;2.33;;;14.70;42.10;;;;;;5014994;28;20189;-83
2023/01/29 03:20:12;;;;;;;2.78;2.58;;;14.80;42.20;;;;;;5014888;28;20193;-83
2023/01/29 03:22:39;;;;;;;2.90;2.70;;;14.70;42.10;;;;;;5015030;28;20284;-82
2023/01/29 03:33:45;;;;;;;2.67;2.47;;;14.70;42.10;;;;;;5015303;28;20193;-82
2023/01/29 03:36:14;;;;;;;2.63;2.42;;;14.70;42.20;;;;;;5014990;28;20220;-83
2023/01/29 03:38:42;;;;;;;2.55;2.35;;;14.70;42.10;;;;;;5015091;28;20652;-82
2023/01/29 03:41:12;;;;;;;3.10;2.60;;;14.70;42.40;;;;;;5014793;28;20201;-82
2023/01/29 03:43:45;;;;;;;2.60;2.40;;;14.70;42.20;;;;;;5016577;28;20204;-82
2023/01/29 03:46:17;;;;;;;2.80;2.60;;;14.70;42.20;;;;;;5017427;28;20221;-82
2023/01/29 03:48:47;;;;;;;2.72;2.53;;;14.60;42.00;;;;;;5014628;28;20219;-83
2023/01/29 03:51:21;;;;;;;2.45;2.25;;;14.60;42.10;;;;;;5014779;28;20201;-83
2023/01/29 03:53:50;;;;;;;2.63;2.42;;;14.60;42.20;;;;;;5014354;28;20201;-83
2023/01/29 03:56:27;;;;;;;2.60;2.40;;;14.70;42.30;;;;;;5014557;28;20221;-83
2023/01/29 03:58:56;;;;;;;2.60;2.40;;;14.60;42.10;;;;;;5014553;28;20219;-83
2023/01/29 04:01:32;;;;;;;2.47;2.30;;;14.60;42.20;;;;;;5014684;28;20197;-83
2023/01/29 04:04:03;;;;;;;2.88;2.67;;;14.60;42.00;;;;;;5014221;28;20268;-83
2023/01/29 04:06:31;;;;;;;2.45;2.25;;;14.60;42.10;;;;;;5014212;28;20220;-83
2023/01/29 04:09:05;;;;;;;2.85;2.65;;;14.60;42.30;;;;;;5014444;28;20213;-83
2023/01/29 04:11:37;;;;;;;2.63;2.42;;;14.60;42.40;;;;;;5014292;28;20207;-83
2023/01/29 04:14:05;;;;;;;2.70;2.50;;;14.60;42.40;;;;;;5014330;28;20208;-83
2023/01/29 04:16:35;;;;;;;2.50;2.30;;;14.60;42.70;;;;;;5014039;28;20224;-83
2023/01/29 04:19:29;;;;;;;3.08;2.75;;;14.50;42.60;;;;;;5012766;28;20200;-83
2023/01/29 04:22:02;;;;;;;2.45;2.30;;;14.50;42.70;;;;;;5013764;28;20224;-83
2023/01/29 04:24:29;;;;;;;2.72;2.53;;;14.50;42.70;;;;;;5013462;28;20239;-83
2023/01/29 04:27:00;;;;;;;3.00;2.80;;;14.60;42.70;;;;;;5013380;28;20291;-83
2023/01/29 04:29:36;;;;;;;2.80;2.60;;;14.60;42.70;;;;;;5013133;28;20252;-83
2023/01/29 04:32:11;;;;;;;2.63;2.25;;;14.70;42.70;;;;;;5013283;28;20200;-83
2023/01/29 04:34:46;;;;;;;2.50;2.30;;;14.60;42.60;;;;;;5013531;28;20220;-83
2023/01/29 04:37:16;;;;;;;2.45;2.25;;;14.70;42.60;;;;;;5014398;28;20215;-83
2023/01/29 04:39:46;;;;;;;2.25;2.10;;;14.70;42.50;;;;;;5013943;28;20197;-83
2023/01/29 04:42:15;;;;;;;2.95;2.50;;;14.70;42.50;;;;;;5013535;28;20214;-83
2023/01/29 04:44:44;;;;;;;2.58;2.38;;;14.80;42.50;;;;;;5013276;28;20197;-83
2023/01/29 04:47:20;;;;;;;2.60;2.40;;;14.80;43.10;;;;;;5013376;28;20220;-83
2023/01/29 04:49:50;;;;;;;2.53;2.38;;;14.80;42.40;;;;;;5013965;28;20201;-83
2023/01/29 04:52:20;;;;;;;2.45;2.25;;;14.80;42.30;;;;;;5014932;28;20185;-83
2023/01/29 04:54:54;;;;;;;2.45;2.25;;;14.90;42.20;;;;;;5014015;28;20208;-83
2023/01/29 04:57:24;;;;;;;2.30;2.20;;;14.90;42.20;;;;;;5013531;28;20207;-83
2023/01/29 04:59:55;;;;;;;2.40;2.20;;;14.90;42.10;;;;;;5013995;28;20246;-83
2023/01/29 05:02:24;;;;;;;3.17;2.45;;;14.90;42.10;;;;;;5013291;28;20196;-83
2023/01/29 05:04:51;;;;;;;2.55;2.35;;;15.00;42.10;;;;;;5013463;28;20247;-83
2023/01/29 05:07:18;;;;;;;2.78;2.58;;;15.00;41.80;;;;;;5014565;28;20274;-82
2023/01/29 05:09:46;;;;;;;2.10;2.00;;;15.00;41.90;;;;;;5014228;28;20255;-83
2023/01/29 05:12:14;;;;;;;2.55;2.28;;;15.00;41.80;;;;;;5027081;28;20259;-83
2023/01/29 05:14:41;;;;;;;2.45;2.25;;;15.00;41.80;;;;;;5013893;28;20197;-82
2023/01/29 05:17:10;;;;;;;2.33;2.15;;;15.10;41.90;;;;;;5013289;28;20221;-83
2023/01/29 05:19:38;;;;;;;2.80;2.60;;;15.10;41.80;;;;;;5013657;28;20202;-83
2023/01/29 05:22:05;;;;;;;2.40;2.20;;;15.10;41.80;;;;;;5016950;28;20251;-83
2023/01/29 05:24:32;;;;;;;2.50;2.30;;;15.10;41.60;;;;;;5016917;28;20523;-83
2023/01/29 05:29:45;;;;;;;2.40;2.20;;;15.10;41.70;;;;;;5017832;28;20215;-83
2023/01/29 05:32:12;;;;;;;2.42;2.22;;;15.10;41.60;;;;;;5017831;28;20196;-83
2023/01/29 05:34:40;;;;;;;2.25;2.05;;;15.20;41.60;;;;;;5016916;28;20201;-83
2023/01/29 05:37:07;;;;;;;2.58;2.38;;;15.20;41.50;;;;;;5017184;28;20220;-83
2023/01/29 05:39:35;;;;;;;2.50;2.30;;;15.10;41.40;;;;;;5017086;28;20197;-82
2023/01/29 05:42:02;;;;;;;2.70;2.50;;;15.10;41.30;;;;;;5001044;28;20209;-82
2023/01/29 05:44:29;;;;;;;2.60;2.40;;;15.20;41.30;;;;;;5016966;28;20204;-82
2023/01/29 05:46:56;;;;;;;2.63;2.42;;;15.20;41.30;;;;;;5017967;28;20242;-82
2023/01/29 05:49:23;;;;;;;2.42;2.28;;;15.20;41.40;;;;;;5016953;28;20563;-83
2023/01/29 05:51:52;;;;;;;2.72;2.53;;;15.20;41.30;;;;;;5016626;28;20200;-82
2023/01/29 05:54:19;;;;;;;2.60;2.40;;;15.20;41.30;;;;;;5017048;28;20197;-82
2023/01/29 05:56:46;;;;;;;2.38;2.17;;;15.20;41.20;;;;;;5016529;28;20205;-82
2023/01/29 05:59:13;;;;;;;2.60;2.40;;;15.30;41.40;;;;;;5018209;28;20635;-83
2023/01/29 06:01:40;;;;;;;2.03;1.92;;;15.30;41.10;;;;;;5017259;28;20200;-83
2023/01/29 06:04:07;;;;;;;2.40;2.20;;;15.30;41.20;;;;;;5016282;28;20207;-83
2023/01/29 06:06:34;;;;;;;2.30;2.10;;;15.30;41.10;;;;;;5016262;28;20695;-83
2023/01/29 06:09:02;;;;;;;2.47;2.28;;;15.30;41.20;;;;;;5017096;28;20244;-83
2023/01/29 06:11:29;;;;;;;2.58;2.38;;;15.30;41.10;;;;;;5017111;28;20224;-83
2023/01/29 06:13:57;;;;;;;2.10;2.00;;;15.40;41.20;;;;;;5016344;28;20201;-83
2023/01/29 06:16:24;;;;;;;2.35;2.15;;;15.40;41.10;;;;;;4999859;28;20267;-83
2023/01/29 06:18:51;;;;;;;3.30;2.47;;;15.40;41.00;;;;;;5015835;28;20240;-83
2023/01/29 06:21:19;;;;;;;2.30;2.10;;;15.40;41.00;;;;;;5015984;28;20247;-83
2023/01/29 06:23:46;;;;;;;2.65;2.35;;;15.40;41.00;;;;;;5015655;28;20216;-83
2023/01/29 06:26:15;;;;;;;2.65;2.45;;;15.40;40.90;;;;;;4999558;28;20228;-83
2023/01/29 06:28:44;;;;;;;2.53;2.33;;;15.40;40.90;;;;;;5015884;28;20200;-83
2023/01/29 06:31:11;;;;;;;2.50;2.30;;;15.40;40.90;;;;;;5015435;28;20202;-83
2023/01/29 06:33:38;;;;;;;2.60;2.40;;;15.40;40.90;;;;;;5015771;28;20204;-83
2023/01/29 06:36:06;;;;;;;2.70;2.50;;;15.50;40.90;;;;;;5016145;28;20225;-83
2023/01/29 06:38:33;;;;;;;2.40;2.20;;;15.50;40.90;;;;;;5015749;28;20205;-83
2023/01/29 06:41:00;;;;;;;2.50;2.30;;;15.50;41.00;;;;;;5016219;28;20677;-83
2023/01/29 06:43:28;;;;;;;2.50;2.30;;;15.50;40.80;;;;;;4999631;28;20574;-83
2023/01/29 06:45:56;;;;;;;2.53;2.33;;;15.50;40.80;;;;;;5015840;28;20219;-83
2023/01/29 06:48:25;;;;;;;2.55;2.17;;;15.50;41.00;;;;;;5015836;28;20697;-83
2023/01/29 06:50:53;;;;;;;2.60;2.40;;;15.50;41.50;;;;;;5016723;28;20275;-83
2023/01/29 06:53:20;;;;;;;2.35;2.15;;;15.50;40.90;;;;;;5015999;28;20235;-83
2023/01/29 06:55:51;;;;;;;2.58;2.38;;;15.50;40.90;;;;;;5016061;28;20220;-83
2023/01/29 06:58:18;;;;;;;2.35;2.15;;;15.50;40.70;;;;;;5017957;28;20193;-83
2023/01/29 07:00:47;;;;;;;2.75;2.55;;;15.50;40.80;;;;;;5017152;28;20566;-83
2023/01/29 07:03:14;;;;;;;2.72;2.53;;;15.60;40.90;;;;;;5017561;28;20255;-83
2023/01/29 07:05:41;;;;;;;2.30;2.10;;;15.50;40.70;;;;;;5017513;28;20227;-83
2023/01/29 07:08:08;;;;;;;2.50;2.30;;;15.50;40.70;;;;;;5018500;28;20569;-83
2023/01/29 07:10:35;;;;;;;2.22;2.13;;;15.60;41.40;;;;;;5017797;28;20224;-83
2023/01/29 07:13:02;;;;;;;2.30;2.10;;;15.50;40.60;;;;;;5016812;28;20696;-83
2023/01/29 07:15:29;;;;;;;2.85;2.55;;;15.60;40.70;;;;;;5015743;28;20262;-83
2023/01/29 07:17:59;;;;;;;2.50;2.30;;;15.60;40.80;;;;;;5015951;28;20208;-83
2023/01/29 07:20:26;;;;;;;3.28;2.50;;;15.50;40.70;;;;;;5015899;28;20266;-83
2023/01/29 07:22:53;;;;;;;2.50;2.30;;;15.60;40.70;;;;;;5015555;28;20217;-83
2023/01/29 07:25:20;;;;;;;2.85;2.65;;;15.60;40.70;;;;;;5016372;28;20220;-83
2023/01/29 07:27:47;;;;;;;2.65;2.10;;;15.60;40.80;;;;;;5015791;28;20259;-83
2023/01/29 07:30:15;;;;;;;2.45;2.25;;;15.60;40.70;;;;;;5016329;28;20220;-83
2023/01/29 07:32:42;;;;;;;2.92;2.72;;;15.60;40.70;;;;;;5016257;28;20205;-83
2023/01/29 07:35:11;;;;;;;2.63;2.40;;;15.60;40.70;;;;;;5017961;28;20255;-83
2023/01/29 07:37:38;;;;;;;2.65;2.45;;;15.70;40.50;;;;;;5016796;28;20222;-83
2023/01/29 07:40:10;;;;;;;2.90;2.70;;;15.60;40.40;;;;;;5016760;28;20192;-83
2023/01/29 07:42:38;;;;;;;2.45;2.22;;;15.70;40.50;;;;;;5016169;28;20200;-83
2023/01/29 07:45:07;;;;;;;2.63;2.40;;;15.70;40.50;;;;;;5017358;28;20196;-84
2023/01/29 07:47:34;;;;;;;2.42;2.22;;;15.70;40.60;;;;;;5016521;28;20205;-83
2023/01/29 07:50:01;;;;;;;2.65;2.45;;;15.70;40.50;;;;;;5016205;28;20658;-83
2023/01/29 07:52:30;;;;;;;2.45;2.25;;;15.70;40.50;;;;;;5015577;28;20200;-84
2023/01/29 07:54:57;;;;;;;3.10;2.80;;;15.70;40.50;;;;;;5015651;28;20197;-84
2023/01/29 07:57:24;;;;;;;2.70;2.50;;;15.70;40.50;;;;;;5015483;28;20199;-84
2023/01/29 07:59:52;;;;;;;2.50;2.30;;;15.80;40.60;;;;;;5016659;28;20189;-84
2023/01/29 08:02:19;;;;;;;3.03;2.60;;;15.70;41.00;;;;;;5015561;28;20567;-84
2023/01/29 08:04:46;;;;;;;2.47;2.28;;;15.80;40.60;;;;;;4983360;28;20197;-84
2023/01/29 08:07:13;;;;;;;2.38;2.17;;;15.70;40.50;;;;;;4999332;28;20315;-83
2023/01/29 08:09:43;;;;;;;2.60;2.40;;;15.80;40.60;;;;;;5015158;28;20212;-83
2023/01/29 08:12:10;;;;;;;2.78;2.58;;;15.80;40.50;;;;;;4982889;28;20648;-83
2023/01/29 08:14:38;;;;;;;2.70;2.50;;;15.80;40.50;;;;;;5015787;28;20207;-83
2023/01/29 08:17:05;;;;;;;2.70;2.50;;;15.80;40.40;;;;;;5014982;28;20221;-83
2023/01/29 08:19:32;;;;;;;2.70;2.50;;;15.80;40.30;;;;;;5015331;28;20629;-83
2023/01/29 08:21:59;;;;;;;2.95;2.75;;;15.80;40.30;;;;;;4998519;28;20197;-83
2023/01/29 08:24:26;;;;;;;2.60;2.40;;;15.90;40.50;;;;;;5015108;28;20205;-83
2023/01/29 08:26:55;;;;;;;2.40;2.20;;;15.90;40.40;;;;;;5015468;28;20705;-83
2023/01/29 08:29:21;;;;;;;2.90;2.70;;;15.90;40.40;;;;;;5000815;28;20667;-84
2023/01/29 08:31:49;;;;;;;2.63;2.42;;;15.90;40.30;;;;;;5016940;28;20304;-83
2023/01/29 08:34:16;;;;;;;2.70;2.50;;;15.90;40.40;;;;;;5017000;28;20197;-84
2023/01/29 08:36:43;;;;;;;2.67;2.47;;;15.90;40.40;;;;;;5016339;28;20641;-84
2023/01/29 08:39:10;;;;;;;2.40;2.20;;;15.90;40.40;;;;;;5016453;28;20215;-83
2023/01/29 08:41:37;;;;;;;2.45;2.25;;;15.90;40.30;;;;;;5015932;28;20196;-83
2023/01/29 08:44:06;;;;;;;2.92;2.72;;;15.90;40.30;;;;;;5014924;28;20207;-84
2023/01/29 08:46:34;;;;;;;2.50;2.30;;;15.90;40.40;;;;;;5015813;28;20228;-84
2023/01/29 08:49:00;;;;;;;2.63;2.42;;;15.90;40.40;;;;;;5016155;28;20200;-84
2023/01/29 08:51:27;;;;;;;2.60;2.40;;;16.00;40.40;;;;;;4999432;28;20216;-84
2023/01/29 08:53:55;;;;;;;2.47;2.28;;;15.90;40.30;;;;;;5015610;28;20205;-84
2023/01/29 08:56:22;;;;;;;2.63;2.42;;;16.00;40.40;;;;;;5017219;28;20218;-84
2023/01/29 08:58:50;;;;;;;2.60;2.40;;;15.90;40.30;;;;;;5016872;28;20228;-84
2023/01/29 09:01:18;;;;;;;2.08;1.98;;;16.00;40.40;;;;;;5016304;28;20193;-84
2023/01/29 09:03:46;;;;;;;2.90;2.65;;;16.00;40.20;;;;;;5016044;28;20224;-84
2023/01/29 09:06:13;;;;;;;2.53;2.33;;;16.00;40.30;;;;;;5015397;28;20220;-84
2023/01/29 09:08:41;;;;;;;2.50;2.30;;;16.00;40.30;;;;;;5015453;28;20220;-84
2023/01/29 09:11:07;;;;;;;2.45;2.25;;;16.00;40.20;;;;;;5015691;28;20221;-84
2023/01/29 09:13:35;;;;;;;2.40;2.20;;;16.00;40.40;;;;;;5015809;28;20235;-84
2023/01/29 09:16:02;;;;;;;3.00;2.80;;;16.00;40.40;;;;;;5015484;28;20520;-83
2023/01/29 09:18:31;;;;;;;2.85;2.65;;;16.00;40.20;;;;;;5014754;28;20212;-83
2023/01/29 09:20:58;;;;;;;3.05;2.80;;;16.00;40.20;;;;;;5013894;28;20219;-84
2023/01/29 09:23:25;;;;;;;2.70;2.50;;;16.00;39.90;;;;;;4998460;28;20192;-84
2023/01/29 09:25:53;;;;;;;3.33;3.03;;;16.00;40.40;;;;;;4998635;28;20764;-82
2023/01/29 09:28:20;;;;;;;2.70;2.50;;;16.00;40.00;;;;;;5014881;28;20204;-82
2023/01/29 09:30:47;;;;;;;2.95;2.67;;;16.10;40.20;;;;;;5014015;28;20243;-82
2023/01/29 09:33:14;;;;;;;2.97;2.78;;;16.00;40.00;;;;;;5014175;28;20201;-82
2023/01/29 09:35:44;;;;;;;2.80;2.60;;;16.10;40.00;;;;;;4998078;28;20311;-82
2023/01/29 09:38:11;;;;;;;3.78;3.47;;;16.00;39.90;;;;;;5015241;28;20197;-80
2023/01/29 09:41:05;;;;;;;3.25;2.95;;;16.10;40.20;;;;;;5016443;28;20184;-82
2023/01/29 09:43:40;;;;;;;3.08;2.72;;;16.10;40.00;;;;;;5018263;28;20245;-81
2023/01/29 09:46:13;;;;;;;4.35;3.95;;;16.10;39.70;;;;;;5017788;28;20220;-82
2023/01/29 09:48:41;;;;;;;3.88;2.80;;;16.20;40.00;;;;;;5014118;28;20295;-82
2023/01/29 09:51:13;;;;;;;3.10;2.90;;;16.20;40.00;;;;;;5014002;28;20220;-83
2023/01/29 09:53:41;;;;;;;3.20;3.00;;;16.20;39.80;;;;;;5014386;28;20255;-83
2023/01/29 09:56:11;;;;;;;4.22;3.92;;;16.20;39.90;;;;;;5014130;28;20216;-83
2023/01/29 09:58:39;;;;;;;10.15;9.55;;;16.30;40.10;;;;;;5014662;28;20251;-83
2023/01/29 10:01:12;;;;;;;10.52;9.93;;;16.30;40.50;;;;;;5014755;28;20676;-84
2023/01/29 10:04:15;;;;;;;8.35;7.65;;;16.40;40.90;;;;;;5013926;28;20557;-84
2023/01/29 10:06:50;;;;;;;9.57;8.98;;;16.40;41.40;;;;;;5015012;28;20449;-84
2023/01/29 10:09:35;;;;;;;10.60;10.00;;;16.40;41.10;;;;;;5017575;28;20298;-84
2023/01/29 10:12:09;;;;;;;371.00;183.52;;;16.50;41.80;;;;;;5016768;28;20682;-84
2023/01/29 10:14:39;;;;;;;142.93;68.57;;;16.50;47.30;;;;;;5017464;28;20553;-84
2023/01/29 10:17:13;;;;;;;132.98;64.35;;;16.60;48.40;;;;;;5017914;28;20588;-84
2023/01/29 10:19:56;;;;;;;110.38;53.97;;;16.60;48.90;;;;;;5019087;28;20655;-84
2023/01/29 10:22:33;;;;;;;98.03;52.60;;;16.60;46.30;;;;;;5018105;28;20196;-84
2023/01/29 10:25:02;;;;;;;90.30;49.20;;;16.70;46.90;;;;;;5018432;28;20189;-85
2023/01/29 10:27:32;;;;;;;76.15;43.50;;;16.80;46.30;;;;;;5000403;28;20287;-84
2023/01/29 10:30:01;;;;;;;71.55;44.38;;;16.80;45.60;;;;;;5017182;28;20264;-84
2023/01/29 10:32:28;;;;;;;72.45;42.63;;;16.90;45.00;;;;;;5016743;28;20201;-84
2023/01/29 10:34:58;;;;;;;64.57;41.78;;;16.90;44.40;;;;;;5016799;28;20251;-84
2023/01/29 10:37:28;;;;;;;72.03;43.70;;;16.90;44.70;;;;;;5016999;28;20205;-84
2023/01/29 10:39:58;;;;;;;65.53;42.30;;;16.90;44.60;;;;;;5017485;28;20538;-84
2023/01/29 10:42:28;;;;;;;60.47;39.45;;;16.90;44.70;;;;;;5017379;28;20204;-84
2023/01/29 10:45:06;;;;;;;62.65;40.35;;;17.00;44.70;;;;;;5016513;28;20263;-84
2023/01/29 10:47:52;;;;;;;60.63;40.40;;;16.90;44.60;;;;;;5016367;28;20231;-84
2023/01/29 10:50:25;;;;;;;60.00;38.17;;;17.00;44.50;;;;;;5017064;28;20201;-81
2023/01/29 10:53:02;;;;;;;56.40;36.28;;;17.00;44.20;;;;;;5017138;28;20644;-82
2023/01/29 10:55:39;;;;;;;48.72;35.40;;;17.00;43.70;;;;;;5017390;28;20729;-82
2023/01/29 10:58:09;;;;;;;46.30;33.97;;;17.00;43.40;;;;;;5017043;28;20201;-82
2023/01/29 11:00:37;;;;;;;46.33;33.80;;;17.00;42.80;;;;;;5017017;28;20224;-82
2023/01/29 11:03:15;;;;;;;54.45;33.10;;;17.00;42.60;;;;;;5017104;28;20204;-82
2023/01/29 11:05:44;;;;;;;56.15;35.30;;;17.10;42.40;;;;;;5018084;28;20221;-82
2023/01/29 11:08:13;;;;;;;47.85;34.00;;;17.10;42.40;;;;;;5018436;28;20208;-83
2023/01/29 11:10:43;;;;;;;43.70;31.48;;;17.10;42.50;;;;;;5017008;28;20303;-82
2023/01/29 11:13:13;;;;;;;45.50;31.08;;;17.10;42.50;;;;;;5016872;28;20189;-83
2023/01/29 11:15:40;;;;;;;45.55;31.42;;;17.10;42.40;;;;;;5016922;28;20247;-83
2023/01/29 11:18:12;;;;;;;39.80;29.90;;;17.10;42.40;;;;;;5015974;28;20213;-81
2023/01/29 11:20:39;;;;;;;39.83;30.42;;;17.10;42.50;;;;;;5000593;28;20247;-82
2023/01/29 11:23:06;;;;;;;38.95;30.23;;;17.10;42.50;;;;;;5016009;28;20255;-82
2023/01/29 11:25:34;;;;;;;36.60;30.52;;;17.20;42.80;;;;;;5015985;28;20212;-82
2023/01/29 11:28:04;;;;;;;53.60;35.97;;;17.10;42.90;;;;;;5015875;28;20196;-82
2023/01/29 11:30:33;;;;;;;44.10;31.25;;;17.20;43.10;;;;;;5015965;28;20199;-82
2023/01/29 11:33:09;;;;;;;39.67;29.33;;;17.20;42.90;;;;;;5015795;28;20197;-82
2023/01/29 11:35:36;;;;;;;40.25;29.90;;;17.20;42.80;;;;;;5015841;28;20726;-82
2023/01/29 11:38:08;;;;;;;39.33;28.40;;;17.20;43.20;;;;;;5015620;28;20259;-82
2023/01/29 11:40:40;;;;;;;35.28;27.92;;;17.20;43.00;;;;;;5015837;28;20205;-82
2023/01/29 11:43:19;;;;;;;41.53;27.08;;;17.20;42.90;;;;;;5015695;28;20628;-82
2023/01/29 11:45:46;;;;;;;34.00;26.90;;;17.20;42.40;;;;;;5015834;28;20697;-82
2023/01/29 11:48:14;;;;;;;34.40;26.13;;;17.20;43.00;;;;;;5016352;28;20211;-82
2023/01/29 11:50:42;;;;;;;33.72;25.73;;;17.20;42.70;;;;;;5016738;28;20244;-82
2023/01/29 11:53:21;;;;;;;30.02;25.75;;;17.20;42.60;;;;;;5015966;28;20259;-82
2023/01/29 11:55:48;;;;;;;31.75;24.20;;;17.20;42.70;;;;;;5015159;28;20313;-82
2023/01/29 11:58:25;;;;;;;30.90;23.23;;;17.20;42.30;;;;;;5015047;28;20208;-82
2023/01/29 12:00:54;;;;;;;28.95;24.02;;;17.30;42.20;;;;;;5015929;28;20288;-82
2023/01/29 12:03:22;;;;;;;28.83;22.50;;;17.30;42.50;;;;;;4999750;28;20655;-82
2023/01/29 12:05:54;;;;;;;26.95;22.58;;;17.30;42.50;;;;;;5015228;28;20220;-81
2023/01/29 12:08:22;;;;;;;27.42;22.92;;;17.30;42.50;;;;;;5015228;28;20196;-82
2023/01/29 12:10:51;;;;;;;26.55;21.15;;;17.30;42.60;;;;;;5015596;28;20559;-82
2023/01/29 12:13:26;;;;;;;31.90;21.73;;;17.30;42.30;;;;;;5014800;28;20604;-82
2023/01/29 12:16:09;;;;;;;24.88;21.85;;;17.30;42.50;;;;;;5015458;28;20228;-82
2023/01/29 12:18:37;;;;;;;25.45;20.27;;;17.30;42.10;;;;;;5015237;28;20701;-82
2023/01/29 12:21:04;;;;;;;27.17;19.52;;;17.30;42.30;;;;;;5015322;28;20662;-82
2023/01/29 12:23:35;;;;;;;25.25;20.40;;;17.40;42.30;;;;;;5015304;28;20205;-82
2023/01/29 12:26:04;;;;;;;25.30;20.52;;;17.40;42.20;;;;;;5014694;28;20221;-82
2023/01/29 12:28:42;;;;;;;27.15;20.65;;;17.40;42.10;;;;;;5014220;28;20224;-82
2023/01/29 12:31:16;;;;;;;24.27;19.90;;;17.50;42.30;;;;;;5014918;28;20216;-82
2023/01/29 12:33:46;;;;;;;23.88;18.92;;;17.50;42.30;;;;;;5015753;28;20219;-82
2023/01/29 12:36:17;;;;;;;22.98;19.05;;;17.50;42.40;;;;;;5014459;28;20213;-82
2023/01/29 12:38:44;;;;;;;23.30;18.73;;;17.50;42.00;;;;;;5014463;28;20195;-82
2023/01/29 12:41:21;;;;;;;22.20;18.40;;;17.50;42.00;;;;;;5014282;28;20197;-82
2023/01/29 12:43:50;;;;;;;22.15;18.42;;;17.50;41.90;;;;;;5014886;28;20283;-82
2023/01/29 12:46:21;;;;;;;19.00;16.92;;;17.60;42.10;;;;;;5014694;28;20220;-82
2023/01/29 12:48:48;;;;;;;21.23;17.65;;;17.60;42.10;;;;;;5014815;28;20189;-82
2023/01/29 12:51:17;;;;;;;18.95;16.95;;;17.60;41.90;;;;;;5015137;28;20224;-82
2023/01/29 12:53:47;;;;;;;20.40;17.52;;;17.60;41.50;;;;;;5015691;28;20651;-82
2023/01/29 12:56:18;;;;;;;22.00;17.63;;;17.60;41.90;;;;;;5016561;28;20216;-82
2023/01/29 12:58:46;;;;;;;21.73;16.80;;;17.70;42.00;;;;;;5015626;28;20662;-82
2023/01/29 13:01:17;;;;;;;17.95;16.15;;;17.70;41.90;;;;;;5015507;28;20223;-82
2023/01/29 13:03:49;;;;;;;18.35;15.52;;;17.70;41.90;;;;;;5014954;28;20223;-82
2023/01/29 13:06:17;;;;;;;18.88;15.27;;;17.70;41.90;;;;;;5015070;28;20220;-82
2023/01/29 13:08:45;;;;;;;19.40;15.55;;;17.70;41.90;;;;;;5015367;28;20641;-82
2023/01/29 13:11:16;;;;;;;17.25;15.52;;;17.70;41.90;;;;;;5014923;28;20208;-82
2023/01/29 13:13:43;;;;;;;17.23;14.95;;;17.70;41.90;;;;;;5015082;28;20196;-82
2023/01/29 13:16:12;;;;;;;18.30;14.68;;;17.80;41.70;;;;;;5014455;28;20213;-82
2023/01/29 13:18:47;;;;;;;17.83;14.77;;;17.90;41.80;;;;;;5014343;28;20583;-82
2023/01/29 13:21:16;;;;;;;19.58;15.20;;;17.90;41.70;;;;;;5014526;28;20199;-81
2023/01/29 13:23:45;;;;;;;16.98;14.38;;;17.80;41.50;;;;;;5014704;28;20254;-83